sensor_id;sensor_type;location;lat;lon;timestamp;P1;durP1;ratioP1;P2;durP2;ratioP2
24751;SDS011;27246;52.376;4.628;2023-09-12T00:01:48;38.42;;;29.75;;
24751;SDS011;27246;52.376;4.628;2023-09-12T00:06:50;36.83;;;29.50;;
24751;SDS011;27246;52.376;4.628;2023-09-12T00:11:52;40.40;;;29.83;;
24751;SDS011;27246;52.376;4.628;2023-09-12T00:16:54;41.50;;;30.10;;
24751;SDS011;27246;52.376;4.628;2023-09-12T00:21:57;37.50;;;28.60;;
24751;SDS011;27246;52.376;4.628;2023-09-12T00:26:58;38.13;;;29.83;;
24751;SDS011;27246;52.376;4.628;2023-09-12T00:32:00;40.33;;;30.23;;
24751;SDS011;27246;52.376;4.628;2023-09-12T00:37:03;41.33;;;31.48;;
24751;SDS011;27246;52.376;4.628;2023-09-12T00:42:04;46.78;;;32.97;;
24751;SDS011;27246;52.376;4.628;2023-09-12T00:47:09;46.47;;;33.42;;
24751;SDS011;27246;52.376;4.628;2023-09-12T00:52:12;45.55;;;34.30;;
24751;SDS011;27246;52.376;4.628;2023-09-12T00:57:17;51.03;;;35.75;;
24751;SDS011;27246;52.376;4.628;2023-09-12T01:02:19;51.08;;;37.42;;
24751;SDS011;27246;52.376;4.628;2023-09-12T01:07:24;51.78;;;37.42;;
24751;SDS011;27246;52.376;4.628;2023-09-12T01:12:26;54.72;;;39.53;;
24751;SDS011;27246;52.376;4.628;2023-09-12T01:17:29;55.35;;;39.67;;
24751;SDS011;27246;52.376;4.628;2023-09-12T01:27:42;58.00;;;41.22;;
24751;SDS011;27246;52.376;4.628;2023-09-12T01:32:51;55.00;;;38.22;;
24751;SDS011;27246;52.376;4.628;2023-09-12T01:37:53;57.15;;;39.38;;
24751;SDS011;27246;52.376;4.628;2023-09-12T01:42:56;55.92;;;39.45;;
24751;SDS011;27246;52.376;4.628;2023-09-12T01:47:59;57.92;;;39.42;;
24751;SDS011;27246;52.376;4.628;2023-09-12T01:53:02;56.97;;;40.15;;
24751;SDS011;27246;52.376;4.628;2023-09-12T01:58:04;56.72;;;39.83;;
24751;SDS011;27246;52.376;4.628;2023-09-12T02:03:06;58.22;;;40.97;;
24751;SDS011;27246;52.376;4.628;2023-09-12T02:08:08;56.72;;;39.30;;
24751;SDS011;27246;52.376;4.628;2023-09-12T02:13:10;55.88;;;38.90;;
24751;SDS011;27246;52.376;4.628;2023-09-12T02:18:12;52.42;;;37.03;;
24751;SDS011;27246;52.376;4.628;2023-09-12T02:23:14;51.83;;;37.45;;
24751;SDS011;27246;52.376;4.628;2023-09-12T02:28:17;54.08;;;39.25;;
24751;SDS011;27246;52.376;4.628;2023-09-12T02:33:19;49.75;;;36.30;;
24751;SDS011;27246;52.376;4.628;2023-09-12T02:38:20;49.50;;;36.58;;
24751;SDS011;27246;52.376;4.628;2023-09-12T02:43:22;43.97;;;32.83;;
24751;SDS011;27246;52.376;4.628;2023-09-12T02:48:24;46.92;;;35.28;;
24751;SDS011;27246;52.376;4.628;2023-09-12T02:53:26;41.30;;;31.48;;
24751;SDS011;27246;52.376;4.628;2023-09-12T02:58:28;39.67;;;31.52;;
24751;SDS011;27246;52.376;4.628;2023-09-12T03:03:29;34.42;;;28.80;;
24751;SDS011;27246;52.376;4.628;2023-09-12T03:08:31;34.92;;;29.02;;
24751;SDS011;27246;52.376;4.628;2023-09-12T03:13:33;35.22;;;28.58;;
24751;SDS011;27246;52.376;4.628;2023-09-12T03:18:37;35.30;;;28.73;;
24751;SDS011;27246;52.376;4.628;2023-09-12T03:23:39;38.75;;;29.15;;
24751;SDS011;27246;52.376;4.628;2023-09-12T03:28:41;33.17;;;26.65;;
24751;SDS011;27246;52.376;4.628;2023-09-12T03:33:44;33.95;;;27.15;;
24751;SDS011;27246;52.376;4.628;2023-09-12T03:38:52;32.97;;;26.33;;
24751;SDS011;27246;52.376;4.628;2023-09-12T03:43:54;34.25;;;25.85;;
24751;SDS011;27246;52.376;4.628;2023-09-12T03:48:56;34.78;;;26.60;;
24751;SDS011;27246;52.376;4.628;2023-09-12T03:53:58;35.72;;;27.33;;
24751;SDS011;27246;52.376;4.628;2023-09-12T03:59:00;31.60;;;25.60;;
24751;SDS011;27246;52.376;4.628;2023-09-12T04:04:02;30.77;;;24.77;;
24751;SDS011;27246;52.376;4.628;2023-09-12T04:09:05;33.25;;;25.17;;
24751;SDS011;27246;52.376;4.628;2023-09-12T04:14:08;32.85;;;24.38;;
24751;SDS011;27246;52.376;4.628;2023-09-12T04:19:09;29.00;;;25.40;;
24751;SDS011;27246;52.376;4.628;2023-09-12T04:24:12;31.02;;;25.10;;
24751;SDS011;27246;52.376;4.628;2023-09-12T04:29:15;29.63;;;24.17;;
24751;SDS011;27246;52.376;4.628;2023-09-12T04:34:17;36.88;;;27.65;;
24751;SDS011;27246;52.376;4.628;2023-09-12T04:39:19;32.97;;;25.00;;
24751;SDS011;27246;52.376;4.628;2023-09-12T04:44:21;34.17;;;26.05;;
24751;SDS011;27246;52.376;4.628;2023-09-12T04:49:23;32.22;;;23.83;;
24751;SDS011;27246;52.376;4.628;2023-09-12T04:54:25;32.00;;;24.95;;
24751;SDS011;27246;52.376;4.628;2023-09-12T04:59:27;37.33;;;27.23;;
24751;SDS011;27246;52.376;4.628;2023-09-12T05:04:29;37.28;;;25.58;;
24751;SDS011;27246;52.376;4.628;2023-09-12T05:09:31;32.13;;;24.70;;
24751;SDS011;27246;52.376;4.628;2023-09-12T05:14:33;35.65;;;26.38;;
24751;SDS011;27246;52.376;4.628;2023-09-12T05:19:35;33.55;;;25.60;;
24751;SDS011;27246;52.376;4.628;2023-09-12T05:24:36;36.40;;;25.67;;
24751;SDS011;27246;52.376;4.628;2023-09-12T05:29:42;37.78;;;26.10;;
24751;SDS011;27246;52.376;4.628;2023-09-12T05:34:44;37.00;;;26.45;;
24751;SDS011;27246;52.376;4.628;2023-09-12T05:39:54;40.65;;;27.98;;
24751;SDS011;27246;52.376;4.628;2023-09-12T05:44:57;44.85;;;27.85;;
24751;SDS011;27246;52.376;4.628;2023-09-12T05:49:59;41.33;;;26.13;;
24751;SDS011;27246;52.376;4.628;2023-09-12T05:55:07;41.07;;;25.97;;
24751;SDS011;27246;52.376;4.628;2023-09-12T06:00:10;39.55;;;25.20;;
24751;SDS011;27246;52.376;4.628;2023-09-12T06:05:15;38.00;;;25.08;;
24751;SDS011;27246;52.376;4.628;2023-09-12T06:10:17;39.33;;;25.48;;
24751;SDS011;27246;52.376;4.628;2023-09-12T06:15:19;44.53;;;27.88;;
24751;SDS011;27246;52.376;4.628;2023-09-12T06:20:21;42.55;;;27.25;;
24751;SDS011;27246;52.376;4.628;2023-09-12T06:25:24;46.53;;;27.73;;
24751;SDS011;27246;52.376;4.628;2023-09-12T06:30:26;51.47;;;28.38;;
24751;SDS011;27246;52.376;4.628;2023-09-12T06:35:28;47.20;;;27.83;;
24751;SDS011;27246;52.376;4.628;2023-09-12T06:40:29;52.30;;;28.65;;
24751;SDS011;27246;52.376;4.628;2023-09-12T06:45:31;48.88;;;28.85;;
24751;SDS011;27246;52.376;4.628;2023-09-12T06:50:34;50.47;;;29.10;;
24751;SDS011;27246;52.376;4.628;2023-09-12T06:55:39;49.65;;;29.63;;
24751;SDS011;27246;52.376;4.628;2023-09-12T07:00:41;51.88;;;29.52;;
24751;SDS011;27246;52.376;4.628;2023-09-12T07:05:43;72.95;;;47.15;;
24751;SDS011;27246;52.376;4.628;2023-09-12T07:10:45;48.30;;;29.27;;
24751;SDS011;27246;52.376;4.628;2023-09-12T07:15:47;51.72;;;28.60;;
24751;SDS011;27246;52.376;4.628;2023-09-12T07:20:59;49.10;;;29.38;;
24751;SDS011;27246;52.376;4.628;2023-09-12T07:26:01;50.97;;;30.30;;
24751;SDS011;27246;52.376;4.628;2023-09-12T07:31:04;50.72;;;30.83;;
24751;SDS011;27246;52.376;4.628;2023-09-12T07:36:06;65.25;;;32.25;;
24751;SDS011;27246;52.376;4.628;2023-09-12T07:41:08;45.70;;;29.10;;
24751;SDS011;27246;52.376;4.628;2023-09-12T07:46:10;57.05;;;30.88;;
24751;SDS011;27246;52.376;4.628;2023-09-12T07:51:12;109.38;;;38.42;;
24751;SDS011;27246;52.376;4.628;2023-09-12T07:56:19;77.55;;;32.67;;
24751;SDS011;27246;52.376;4.628;2023-09-12T08:01:21;55.85;;;31.23;;
24751;SDS011;27246;52.376;4.628;2023-09-12T08:06:23;55.63;;;31.20;;
24751;SDS011;27246;52.376;4.628;2023-09-12T08:11:25;57.80;;;32.08;;
24751;SDS011;27246;52.376;4.628;2023-09-12T08:16:28;105.85;;;38.22;;
24751;SDS011;27246;52.376;4.628;2023-09-12T08:21:30;54.50;;;29.83;;
24751;SDS011;27246;52.376;4.628;2023-09-12T08:26:32;56.25;;;30.30;;
24751;SDS011;27246;52.376;4.628;2023-09-12T08:31:33;56.35;;;28.60;;
24751;SDS011;27246;52.376;4.628;2023-09-12T08:36:35;47.58;;;27.42;;
24751;SDS011;27246;52.376;4.628;2023-09-12T08:41:37;44.90;;;25.77;;
24751;SDS011;27246;52.376;4.628;2023-09-12T08:46:41;43.45;;;25.52;;
24751;SDS011;27246;52.376;4.628;2023-09-12T08:51:43;37.47;;;22.27;;
24751;SDS011;27246;52.376;4.628;2023-09-12T08:56:48;49.85;;;24.08;;
24751;SDS011;27246;52.376;4.628;2023-09-12T09:01:50;28.67;;;19.27;;
24751;SDS011;27246;52.376;4.628;2023-09-12T09:06:53;31.40;;;19.40;;
24751;SDS011;27246;52.376;4.628;2023-09-12T09:11:57;28.85;;;18.30;;
24751;SDS011;27246;52.376;4.628;2023-09-12T09:16:59;27.05;;;18.65;;
24751;SDS011;27246;52.376;4.628;2023-09-12T09:22:04;121.85;;;28.67;;
24751;SDS011;27246;52.376;4.628;2023-09-12T09:27:08;30.40;;;17.70;;
24751;SDS011;27246;52.376;4.628;2023-09-12T09:32:09;22.05;;;15.80;;
24751;SDS011;27246;52.376;4.628;2023-09-12T09:37:19;21.05;;;14.13;;
24751;SDS011;27246;52.376;4.628;2023-09-12T09:42:21;22.38;;;12.88;;
24751;SDS011;27246;52.376;4.628;2023-09-12T09:47:23;37.05;;;17.35;;
24751;SDS011;27246;52.376;4.628;2023-09-12T09:52:25;26.67;;;14.07;;
24751;SDS011;27246;52.376;4.628;2023-09-12T09:57:30;22.75;;;13.55;;
24751;SDS011;27246;52.376;4.628;2023-09-12T10:02:38;25.15;;;14.20;;
24751;SDS011;27246;52.376;4.628;2023-09-12T10:07:41;21.50;;;12.32;;
24751;SDS011;27246;52.376;4.628;2023-09-12T10:12:49;20.88;;;11.63;;
24751;SDS011;27246;52.376;4.628;2023-09-12T10:17:57;15.13;;;9.43;;
24751;SDS011;27246;52.376;4.628;2023-09-12T10:23:04;18.50;;;10.40;;
24751;SDS011;27246;52.376;4.628;2023-09-12T10:28:12;14.85;;;9.23;;
24751;SDS011;27246;52.376;4.628;2023-09-12T10:33:15;20.30;;;9.30;;
24751;SDS011;27246;52.376;4.628;2023-09-12T10:38:18;11.55;;;7.68;;
24751;SDS011;27246;52.376;4.628;2023-09-12T10:43:21;14.57;;;9.20;;
24751;SDS011;27246;52.376;4.628;2023-09-12T10:48:30;14.25;;;9.98;;
24751;SDS011;27246;52.376;4.628;2023-09-12T10:53:33;8.65;;;7.00;;
24751;SDS011;27246;52.376;4.628;2023-09-12T11:09:24;13.75;;;7.53;;
24751;SDS011;27246;52.376;4.628;2023-09-12T11:14:26;13.68;;;6.50;;
24751;SDS011;27246;52.376;4.628;2023-09-12T11:19:28;12.35;;;7.47;;
24751;SDS011;27246;52.376;4.628;2023-09-12T11:24:32;11.18;;;7.13;;
24751;SDS011;27246;52.376;4.628;2023-09-12T11:29:45;8.85;;;6.13;;
24751;SDS011;27246;52.376;4.628;2023-09-12T11:34:47;13.48;;;6.70;;
24751;SDS011;27246;52.376;4.628;2023-09-12T11:39:50;40.10;;;9.77;;
24751;SDS011;27246;52.376;4.628;2023-09-12T11:44:54;16.25;;;6.53;;
24751;SDS011;27246;52.376;4.628;2023-09-12T11:49:56;9.63;;;4.45;;
24751;SDS011;27246;52.376;4.628;2023-09-12T11:54:57;6.97;;;4.72;;
24751;SDS011;27246;52.376;4.628;2023-09-12T12:00:02;33.88;;;8.00;;
24751;SDS011;27246;52.376;4.628;2023-09-12T12:05:12;7.10;;;3.97;;
24751;SDS011;27246;52.376;4.628;2023-09-12T12:10:17;7.20;;;4.88;;
24751;SDS011;27246;52.376;4.628;2023-09-12T12:15:19;8.23;;;5.88;;
24751;SDS011;27246;52.376;4.628;2023-09-12T12:20:22;8.27;;;5.82;;
24751;SDS011;27246;52.376;4.628;2023-09-12T12:25:24;12.85;;;5.65;;
24751;SDS011;27246;52.376;4.628;2023-09-12T12:30:29;10.23;;;5.63;;
24751;SDS011;27246;52.376;4.628;2023-09-12T12:35:32;8.10;;;6.07;;
24751;SDS011;27246;52.376;4.628;2023-09-12T12:40:53;12.73;;;6.22;;
24751;SDS011;27246;52.376;4.628;2023-09-12T12:45:57;7.15;;;4.93;;
24751;SDS011;27246;52.376;4.628;2023-09-12T12:51:12;12.52;;;6.70;;
24751;SDS011;27246;52.376;4.628;2023-09-12T12:56:19;11.82;;;6.45;;
24751;SDS011;27246;52.376;4.628;2023-09-12T13:01:23;7.88;;;5.50;;
24751;SDS011;27246;52.376;4.628;2023-09-12T13:06:26;6.75;;;4.50;;
24751;SDS011;27246;52.376;4.628;2023-09-12T13:11:29;9.95;;;4.72;;
24751;SDS011;27246;52.376;4.628;2023-09-12T13:16:36;7.78;;;4.40;;
24751;SDS011;27246;52.376;4.628;2023-09-12T13:21:38;8.23;;;4.25;;
24751;SDS011;27246;52.376;4.628;2023-09-12T13:26:41;9.27;;;4.68;;
24751;SDS011;27246;52.376;4.628;2023-09-12T13:31:43;4.80;;;4.22;;
24751;SDS011;27246;52.376;4.628;2023-09-12T13:36:46;11.02;;;4.35;;
24751;SDS011;27246;52.376;4.628;2023-09-12T13:42:02;6.35;;;3.55;;
24751;SDS011;27246;52.376;4.628;2023-09-12T13:47:05;9.65;;;4.10;;
24751;SDS011;27246;52.376;4.628;2023-09-12T13:52:07;6.05;;;3.83;;
24751;SDS011;27246;52.376;4.628;2023-09-12T13:57:09;12.07;;;4.65;;
24751;SDS011;27246;52.376;4.628;2023-09-12T14:02:11;7.45;;;4.05;;
24751;SDS011;27246;52.376;4.628;2023-09-12T14:07:13;6.35;;;4.45;;
24751;SDS011;27246;52.376;4.628;2023-09-12T14:12:16;5.45;;;4.93;;
24751;SDS011;27246;52.376;4.628;2023-09-12T14:17:29;6.65;;;4.43;;
24751;SDS011;27246;52.376;4.628;2023-09-12T14:22:32;10.13;;;5.05;;
24751;SDS011;27246;52.376;4.628;2023-09-12T14:27:35;6.28;;;5.10;;
24751;SDS011;27246;52.376;4.628;2023-09-12T14:32:38;7.00;;;6.30;;
24751;SDS011;27246;52.376;4.628;2023-09-12T14:37:39;6.05;;;4.65;;
24751;SDS011;27246;52.376;4.628;2023-09-12T14:42:43;7.72;;;4.88;;
24751;SDS011;27246;52.376;4.628;2023-09-12T14:47:45;7.93;;;4.95;;
24751;SDS011;27246;52.376;4.628;2023-09-12T14:52:47;7.97;;;4.88;;
24751;SDS011;27246;52.376;4.628;2023-09-12T14:57:49;8.57;;;4.75;;
24751;SDS011;27246;52.376;4.628;2023-09-12T15:02:51;7.47;;;4.70;;
24751;SDS011;27246;52.376;4.628;2023-09-12T15:07:53;7.43;;;5.40;;
24751;SDS011;27246;52.376;4.628;2023-09-12T15:12:54;8.75;;;4.97;;
24751;SDS011;27246;52.376;4.628;2023-09-12T15:17:57;7.70;;;5.10;;
24751;SDS011;27246;52.376;4.628;2023-09-12T15:23:01;7.20;;;4.20;;
24751;SDS011;27246;52.376;4.628;2023-09-12T15:28:05;6.38;;;4.47;;
24751;SDS011;27246;52.376;4.628;2023-09-12T15:33:07;6.03;;;4.97;;
24751;SDS011;27246;52.376;4.628;2023-09-12T15:38:09;5.07;;;4.07;;
24751;SDS011;27246;52.376;4.628;2023-09-12T15:43:11;8.52;;;4.85;;
24751;SDS011;27246;52.376;4.628;2023-09-12T15:48:25;4.97;;;4.43;;
24751;SDS011;27246;52.376;4.628;2023-09-12T15:53:27;6.35;;;4.15;;
24751;SDS011;27246;52.376;4.628;2023-09-12T15:58:29;7.18;;;5.00;;
24751;SDS011;27246;52.376;4.628;2023-09-12T16:03:31;7.28;;;5.63;;
24751;SDS011;27246;52.376;4.628;2023-09-12T16:08:34;7.32;;;5.13;;
24751;SDS011;27246;52.376;4.628;2023-09-12T16:13:35;7.72;;;4.82;;
24751;SDS011;27246;52.376;4.628;2023-09-12T16:18:37;6.68;;;5.50;;
24751;SDS011;27246;52.376;4.628;2023-09-12T16:23:39;5.47;;;4.38;;
24751;SDS011;27246;52.376;4.628;2023-09-12T16:28:41;6.78;;;4.78;;
24751;SDS011;27246;52.376;4.628;2023-09-12T16:33:44;14.07;;;8.63;;
24751;SDS011;27246;52.376;4.628;2023-09-12T16:38:49;13.25;;;8.48;;
24751;SDS011;27246;52.376;4.628;2023-09-12T16:43:52;12.18;;;7.13;;
24751;SDS011;27246;52.376;4.628;2023-09-12T16:48:54;10.18;;;7.15;;
24751;SDS011;27246;52.376;4.628;2023-09-12T16:53:57;8.38;;;6.95;;
24751;SDS011;27246;52.376;4.628;2023-09-12T16:58:58;12.70;;;7.35;;
24751;SDS011;27246;52.376;4.628;2023-09-12T17:04:01;9.40;;;7.53;;
24751;SDS011;27246;52.376;4.628;2023-09-12T17:09:05;9.48;;;6.47;;
24751;SDS011;27246;52.376;4.628;2023-09-12T17:14:06;7.65;;;5.70;;
24751;SDS011;27246;52.376;4.628;2023-09-12T17:19:08;8.60;;;6.03;;
24751;SDS011;27246;52.376;4.628;2023-09-12T17:24:12;6.88;;;5.72;;
24751;SDS011;27246;52.376;4.628;2023-09-12T17:29:15;7.18;;;5.40;;
24751;SDS011;27246;52.376;4.628;2023-09-12T17:34:17;7.13;;;5.43;;
24751;SDS011;27246;52.376;4.628;2023-09-12T17:39:19;7.30;;;4.82;;
24751;SDS011;27246;52.376;4.628;2023-09-12T17:44:21;8.27;;;5.25;;
24751;SDS011;27246;52.376;4.628;2023-09-12T17:49:22;8.05;;;4.40;;
24751;SDS011;27246;52.376;4.628;2023-09-12T17:54:26;4.85;;;3.78;;
24751;SDS011;27246;52.376;4.628;2023-09-12T17:59:28;6.22;;;4.90;;
24751;SDS011;27246;52.376;4.628;2023-09-12T18:04:31;7.47;;;4.05;;
24751;SDS011;27246;52.376;4.628;2023-09-12T18:09:33;9.13;;;5.25;;
24751;SDS011;27246;52.376;4.628;2023-09-12T18:14:35;9.68;;;4.22;;
24751;SDS011;27246;52.376;4.628;2023-09-12T18:19:37;7.93;;;4.80;;
24751;SDS011;27246;52.376;4.628;2023-09-12T18:24:39;7.28;;;4.95;;
24751;SDS011;27246;52.376;4.628;2023-09-12T18:29:41;5.65;;;4.45;;
24751;SDS011;27246;52.376;4.628;2023-09-12T18:34:43;7.90;;;4.28;;
24751;SDS011;27246;52.376;4.628;2023-09-12T18:39:47;5.00;;;3.80;;
24751;SDS011;27246;52.376;4.628;2023-09-12T18:44:49;8.23;;;4.63;;
24751;SDS011;27246;52.376;4.628;2023-09-12T18:49:51;6.07;;;4.10;;
24751;SDS011;27246;52.376;4.628;2023-09-12T18:54:52;6.28;;;4.10;;
24751;SDS011;27246;52.376;4.628;2023-09-12T18:59:54;7.40;;;4.00;;
24751;SDS011;27246;52.376;4.628;2023-09-12T19:04:56;6.40;;;3.95;;
24751;SDS011;27246;52.376;4.628;2023-09-12T19:10:02;4.55;;;3.10;;
24751;SDS011;27246;52.376;4.628;2023-09-12T19:15:05;5.90;;;3.95;;
24751;SDS011;27246;52.376;4.628;2023-09-12T19:20:07;6.70;;;3.70;;
24751;SDS011;27246;52.376;4.628;2023-09-12T19:25:10;5.07;;;3.33;;
24751;SDS011;27246;52.376;4.628;2023-09-12T19:30:12;5.30;;;3.60;;
24751;SDS011;27246;52.376;4.628;2023-09-12T19:35:14;5.30;;;3.80;;
24751;SDS011;27246;52.376;4.628;2023-09-12T19:40:19;7.53;;;3.75;;
24751;SDS011;27246;52.376;4.628;2023-09-12T19:45:20;5.82;;;3.75;;
24751;SDS011;27246;52.376;4.628;2023-09-12T19:50:22;7.40;;;3.65;;
24751;SDS011;27246;52.376;4.628;2023-09-12T19:55:24;7.38;;;3.72;;
24751;SDS011;27246;52.376;4.628;2023-09-12T20:00:27;5.63;;;3.67;;
24751;SDS011;27246;52.376;4.628;2023-09-12T20:05:31;9.57;;;4.65;;
24751;SDS011;27246;52.376;4.628;2023-09-12T20:10:33;5.38;;;3.28;;
24751;SDS011;27246;52.376;4.628;2023-09-12T20:15:36;5.47;;;3.47;;
24751;SDS011;27246;52.376;4.628;2023-09-12T20:20:39;5.70;;;3.67;;
24751;SDS011;27246;52.376;4.628;2023-09-12T20:25:41;6.68;;;4.13;;
24751;SDS011;27246;52.376;4.628;2023-09-12T20:30:46;5.72;;;4.00;;
24751;SDS011;27246;52.376;4.628;2023-09-12T20:35:48;6.28;;;2.97;;
24751;SDS011;27246;52.376;4.628;2023-09-12T20:40:51;5.63;;;3.10;;
24751;SDS011;27246;52.376;4.628;2023-09-12T20:45:53;4.60;;;3.53;;
24751;SDS011;27246;52.376;4.628;2023-09-12T20:50:55;5.32;;;4.32;;
24751;SDS011;27246;52.376;4.628;2023-09-12T20:55:57;6.07;;;3.50;;
24751;SDS011;27246;52.376;4.628;2023-09-12T21:00:59;5.25;;;3.50;;
24751;SDS011;27246;52.376;4.628;2023-09-12T21:06:01;4.78;;;2.63;;
24751;SDS011;27246;52.376;4.628;2023-09-12T21:11:03;5.72;;;2.50;;
24751;SDS011;27246;52.376;4.628;2023-09-12T21:16:05;3.85;;;3.00;;
24751;SDS011;27246;52.376;4.628;2023-09-12T21:21:06;3.80;;;2.50;;
24751;SDS011;27246;52.376;4.628;2023-09-12T21:26:08;4.72;;;2.42;;
24751;SDS011;27246;52.376;4.628;2023-09-12T21:31:10;3.53;;;2.35;;
24751;SDS011;27246;52.376;4.628;2023-09-12T21:36:12;3.45;;;2.38;;
24751;SDS011;27246;52.376;4.628;2023-09-12T21:41:13;4.03;;;2.22;;
24751;SDS011;27246;52.376;4.628;2023-09-12T21:46:18;3.28;;;2.40;;
24751;SDS011;27246;52.376;4.628;2023-09-12T21:51:20;3.88;;;2.78;;
24751;SDS011;27246;52.376;4.628;2023-09-12T21:56:21;3.35;;;2.55;;
24751;SDS011;27246;52.376;4.628;2023-09-12T22:01:23;2.25;;;1.98;;
24751;SDS011;27246;52.376;4.628;2023-09-12T22:06:25;2.95;;;1.88;;
24751;SDS011;27246;52.376;4.628;2023-09-12T22:11:28;3.45;;;2.30;;
24751;SDS011;27246;52.376;4.628;2023-09-12T22:16:30;3.10;;;2.10;;
24751;SDS011;27246;52.376;4.628;2023-09-12T22:21:31;3.47;;;2.00;;
24751;SDS011;27246;52.376;4.628;2023-09-12T22:26:33;2.72;;;2.30;;
24751;SDS011;27246;52.376;4.628;2023-09-12T22:31:35;3.75;;;2.13;;
24751;SDS011;27246;52.376;4.628;2023-09-12T22:36:37;4.40;;;2.30;;
24751;SDS011;27246;52.376;4.628;2023-09-12T22:41:39;2.30;;;1.83;;
24751;SDS011;27246;52.376;4.628;2023-09-12T22:46:41;2.83;;;1.60;;
24751;SDS011;27246;52.376;4.628;2023-09-12T22:51:42;3.00;;;1.50;;
24751;SDS011;27246;52.376;4.628;2023-09-12T22:56:44;2.88;;;1.63;;
24751;SDS011;27246;52.376;4.628;2023-09-12T23:06:55;1.90;;;1.60;;
24751;SDS011;27246;52.376;4.628;2023-09-12T23:11:57;3.53;;;1.95;;
24751;SDS011;27246;52.376;4.628;2023-09-12T23:17:00;2.30;;;1.95;;
24751;SDS011;27246;52.376;4.628;2023-09-12T23:22:02;4.15;;;1.60;;
24751;SDS011;27246;52.376;4.628;2023-09-12T23:27:04;2.80;;;2.60;;
24751;SDS011;27246;52.376;4.628;2023-09-12T23:32:08;3.25;;;1.90;;
24751;SDS011;27246;52.376;4.628;2023-09-12T23:37:10;2.20;;;1.98;;
24751;SDS011;27246;52.376;4.628;2023-09-12T23:42:12;1.95;;;1.67;;
24751;SDS011;27246;52.376;4.628;2023-09-12T23:47:14;2.53;;;1.83;;
24751;SDS011;27246;52.376;4.628;2023-09-12T23:52:17;2.65;;;1.92;;
24751;SDS011;27246;52.376;4.628;2023-09-12T23:57:19;2.10;;;1.45;;
